• Join FlightAware (Why Join?)
  • Login
  • US Flag 
05:23PM EDT


 

Airport Tracker/Info


-or-


 

Live Flight TrackerFlight Track Log ✈ UAL383 ✈ 01-May-2013 ✈ PHNL - KDEN

Flight Track Log - Related Links

Times and Time Zones

All times are in EDT time to prevent confusion due to time zone crossing. See the UAL383 flight status page for this flight to view local times or setup timezone preferences in your user account.

Time Position Orientation Groundspeed Altitude Reporting Facility
EDT Latitude Longitude Course Direction KTS MPH feet Rate Location/Type
04:11AM 21.3167 -157.8833 148° Southeast 210 242 1,100  Level Honolulu Center
04:12AM 21.2667 -157.8500 148° Southeast 230 265 3,200 2,220 Climbing Honolulu Center
04:13AM 21.2000 -157.8167 155° Southeast 260 299 5,600 2,520 Climbing Honolulu Center
04:14AM 21.2000 -157.7333 90° East 270 311 8,300 2,400 Climbing Honolulu Center
04:15AM 21.2167 -157.6500 78° East 280 322 10,400 1,920 Climbing Honolulu Center
04:16AM 21.2333 -157.5667 78° East 300 345 12,200 1,500 Climbing Honolulu Center
04:17AM 21.2833 -157.4833 57° Northeast 350 403 13,400 1,380 Climbing Honolulu Center
04:18AM 21.3500 -157.3833 54° Northeast 370 426 15,000 1,500 Climbing Honolulu Center
04:19AM 21.4000 -157.3000 57° Northeast 390 449 16,500 1,440 Climbing Honolulu Center
04:20AM 21.4667 -157.2000 54° Northeast 400 460 17,900 1,320 Climbing Honolulu Center
04:21AM 21.5167 -157.1000 62° Northeast 410 472 19,200 1,380 Climbing Honolulu Center
04:22AM 21.5833 -156.9833 58° Northeast 420 483 20,700 1,380 Climbing Honolulu Center
04:23AM 21.6500 -156.8833 54° Northeast 430 495 22,000 1,200 Climbing Honolulu Center
04:24AM 21.7167 -156.7667 58° Northeast 440 506 23,200 1,200 Climbing Honolulu Center
04:25AM 21.7833 -156.6667 54° Northeast 450 518 24,400 1,080 Climbing Honolulu Center
04:26AM 21.8500 -156.5500 58° Northeast 460 529 25,400 1,080 Climbing Honolulu Center
04:27AM 21.9333 -156.4333 52° Northeast 470 541 26,600 1,140 Climbing Honolulu Center
04:28AM 22.0000 -156.3167 58° Northeast 470 541 27,700 1,020 Climbing Honolulu Center
04:29AM 22.0667 -156.2000 58° Northeast 480 552 28,700 960 Climbing Honolulu Center
04:30AM 22.1500 -156.0667 56° Northeast 480 552 29,700 900 Climbing Honolulu Center
04:31AM 22.2167 -155.9500 58° Northeast 490 564 30,600 960 Climbing Honolulu Center
04:32AM 22.3000 -155.8167 56° Northeast 490 564 31,700 1,020 Climbing Honolulu Center
04:33AM 22.3667 -155.7000 58° Northeast 490 564 32,700 960 Climbing Honolulu Center
04:34AM 22.4500 -155.5667 56° Northeast 490 564 33,700 900 Climbing Honolulu Center
04:35AM 22.5167 -155.4500 58° Northeast 490 564 34,500 600 Climbing Honolulu Center
04:36AM 22.6000 -155.3333 52° Northeast 490 564 35,000 240 Climbing Honolulu Center
04:37AM 22.6667 -155.2000 62° Northeast 490 564 35,000  Level Honolulu Center
04:38AM 22.7500 -155.0667 56° Northeast 490 564 35,000  Level Honolulu Center
04:39AM 22.8167 -154.9500 58° Northeast 490 564 35,000  Level Honolulu Center
04:40AM 22.8833 -154.8500 54° Northeast 490 564 35,000  Level Honolulu Center
04:41AM 22.9500 -154.7333 58° Northeast 490 564 35,000  Level Honolulu Center
04:43AM 23.0574 -154.5542 57° Northeast  Level FlightAware Approximate
04:50AM 23.5247 -153.7673 57° Northeast  Level FlightAware Approximate
04:51AM 23.5911 -153.6544 57° Northeast  Level FlightAware Approximate
04:52AM 23.6574 -153.5414 57° Northeast  Level FlightAware Approximate
04:53AM 23.7237 -153.4283 57° Northeast  Level FlightAware Approximate
04:54AM 23.7925 -153.3180 57° Northeast  Level FlightAware Approximate
04:54AM 23.7833 -153.3667 57° Northeast 480 552 35,000  Level Oakland Oceanic (ODAPS)
04:55AM 23.8600 -153.2056 57° Northeast  Level FlightAware Approximate
04:56AM 23.9273 -153.0931 57° Northeast  Level FlightAware Approximate
04:57AM 23.9946 -152.9805 57° Northeast  Level FlightAware Approximate
04:58AM 24.0618 -152.8677 57° Northeast  Level FlightAware Approximate
04:59AM 24.1303 -152.7525 57° Northeast  Level FlightAware Approximate
05:00AM 24.1987 -152.6372 57° Northeast  Level FlightAware Approximate
05:01AM 24.4358 -152.2632 57° Northeast 480 552 35,000  Level FlightAware Transoceanic
05:02AM 24.5078 -152.1399 57° Northeast 480 552 35,000  Level FlightAware Transoceanic
05:03AM 24.5797 -152.0165 57° Northeast 480 552 35,000  Level FlightAware Transoceanic
05:04AM 24.6516 -151.8929 57° Northeast 480 552 35,000  Level FlightAware Transoceanic
05:05AM 24.7232 -151.7691 57° Northeast 480 552 35,000  Level FlightAware Transoceanic
05:06AM 24.7948 -151.6453 58° Northeast 480 552 35,000  Level FlightAware Transoceanic
05:07AM 24.8664 -151.5213 58° Northeast 480 552 35,000  Level FlightAware Transoceanic
05:08AM 24.9377 -151.3971 58° Northeast 480 552 35,000  Level FlightAware Transoceanic
05:09AM 25.0090 -151.2728 58° Northeast 480 552 35,000  Level FlightAware Transoceanic
05:10AM 25.0802 -151.1483 58° Northeast 480 552 35,000  Level FlightAware Transoceanic
05:11AM 25.1513 -151.0238 58° Northeast 480 552 35,000  Level FlightAware Transoceanic
05:12AM 25.2223 -150.8990 58° Northeast 480 552 35,000  Level FlightAware Transoceanic
05:13AM 25.2932 -150.7741 58° Northeast 480 552 35,000  Level FlightAware Transoceanic
05:14AM 25.3640 -150.6491 58° Northeast 480 552 35,000  Level FlightAware Transoceanic
05:15AM 25.4346 -150.5239 58° Northeast 480 552 35,000  Level FlightAware Transoceanic
05:16AM 25.5052 -150.3986 58° Northeast 480 552 35,000  Level FlightAware Transoceanic
05:17AM 25.5756 -150.2731 58° Northeast 480 552 35,000  Level FlightAware Transoceanic
05:18AM 25.6460 -150.1475 58° Northeast 480 552 35,000  Level FlightAware Transoceanic
05:19AM 25.7162 -150.0218 58° Northeast 480 552 35,000  Level FlightAware Transoceanic
05:20AM 25.7864 -149.8958 58° Northeast 480 552 35,000  Level FlightAware Transoceanic
05:21AM 25.8564 -149.7698 58° Northeast 480 552 35,000  Level FlightAware Transoceanic
05:22AM 25.9263 -149.6436 58° Northeast 480 552 35,000  Level FlightAware Transoceanic
05:23AM 25.9961 -149.5172 58° Northeast 480 552 35,000  Level FlightAware Transoceanic
05:24AM 26.0658 -149.3907 59° Northeast 480 552 35,000  Level FlightAware Transoceanic
05:25AM 26.1354 -149.2640 59° Northeast 480 552 35,000  Level FlightAware Transoceanic
05:26AM 26.2049 -149.1372 59° Northeast 480 552 35,000  Level FlightAware Transoceanic
05:27AM 26.2742 -149.0103 59° Northeast 480 552 35,000  Level FlightAware Transoceanic
05:28AM 26.3435 -148.8831 59° Northeast 480 552 35,000  Level FlightAware Transoceanic
05:29AM 26.4126 -148.7559 59° Northeast 480 552 35,000  Level FlightAware Transoceanic
05:30AM 26.4816 -148.6285 59° Northeast 480 552 35,000  Level FlightAware Transoceanic
05:31AM 26.5505 -148.5009 59° Northeast 480 552 35,000  Level FlightAware Transoceanic
05:32AM 26.6193 -148.3732 59° Northeast 480 552 35,000  Level FlightAware Transoceanic
05:33AM 26.6880 -148.2453 59° Northeast 480 552 35,000  Level FlightAware Transoceanic
05:34AM 26.7566 -148.1172 59° Northeast 480 552 35,000  Level FlightAware Transoceanic
05:35AM 26.8251 -147.9891 59° Northeast 480 552 35,000  Level FlightAware Transoceanic
05:36AM 26.8934 -147.8607 59° Northeast 480 552 35,000  Level FlightAware Transoceanic
05:37AM 26.9616 -147.7322 59° Northeast 480 552 35,000  Level FlightAware Transoceanic
05:38AM 27.0297 -147.6036 59° Northeast 480 552 35,000  Level FlightAware Transoceanic
05:39AM 27.0977 -147.4748 59° Northeast 480 552 35,000  Level FlightAware Transoceanic
05:40AM 27.1656 -147.3458 59° Northeast 480 552 35,000  Level FlightAware Transoceanic
05:41AM 27.2333 -147.2167 59° Northeast 480 552 35,000  Level FlightAware Transoceanic
05:42AM 27.2959 -147.0973 59° Northeast 480 552 35,000  Level FlightAware Transoceanic
05:43AM 27.3584 -146.9778 60° Northeast 480 552 35,000  Level FlightAware Transoceanic
05:43AM 27.2333 -147.2167 59° Northeast 443 510 35,000  Level Oakland Oceanic (ODAPS)
05:44AM 27.4207 -146.8582 60° Northeast 480 552 35,000  Level FlightAware Transoceanic
05:45AM 27.4830 -146.7385 60° Northeast 480 552 35,000  Level FlightAware Transoceanic
05:46AM 27.5451 -146.6186 60° Northeast 480 552 35,000  Level FlightAware Transoceanic
05:47AM 27.6072 -146.4986 60° Northeast 480 552 35,000  Level FlightAware Transoceanic
05:48AM 27.6691 -146.3784 60° Northeast 480 552 35,000  Level FlightAware Transoceanic
05:49AM 27.7309 -146.2582 60° Northeast 443 510 35,000  Level FlightAware Transoceanic
05:50AM 27.7927 -146.1377 60° Northeast 443 510 35,000  Level FlightAware Transoceanic
05:51AM 27.8543 -146.0172 60° Northeast 443 510 35,000  Level FlightAware Transoceanic
05:52AM 27.9158 -145.8965 60° Northeast 443 510 35,000  Level FlightAware Transoceanic
05:53AM 27.9773 -145.7756 60° Northeast 443 510 35,000  Level FlightAware Transoceanic
05:54AM 28.0386 -145.6547 60° Northeast 443 510 35,000  Level FlightAware Transoceanic
05:55AM 28.0998 -145.5336 60° Northeast 443 510 35,000  Level FlightAware Transoceanic
05:56AM 28.1609 -145.4123 60° Northeast 443 510 35,000  Level FlightAware Transoceanic
05:57AM 28.2219 -145.2909 60° Northeast 443 510 35,000  Level FlightAware Transoceanic
05:58AM 28.2828 -145.1694 60° Northeast 443 510 35,000  Level FlightAware Transoceanic
05:59AM 28.3436 -145.0477 60° Northeast 443 510 35,000  Level FlightAware Transoceanic
06:00AM 28.4042 -144.9259 61° Northeast 443 510 35,000  Level FlightAware Transoceanic
06:01AM 28.4648 -144.8040 61° Northeast 443 510 35,000  Level FlightAware Transoceanic
06:02AM 28.5253 -144.6819 61° Northeast 443 510 35,000  Level FlightAware Transoceanic
06:03AM 28.5856 -144.5597 61° Northeast 443 510 35,000  Level FlightAware Transoceanic
06:04AM 28.6459 -144.4373 61° Northeast 443 510 35,000  Level FlightAware Transoceanic
06:05AM 28.7060 -144.3148 61° Northeast 443 510 35,000  Level FlightAware Transoceanic
06:06AM 28.7660 -144.1922 61° Northeast 443 510 35,000  Level FlightAware Transoceanic
06:07AM 28.8259 -144.0694 61° Northeast 443 510 35,000  Level FlightAware Transoceanic
06:08AM 28.8857 -143.9465 61° Northeast 443 510 35,000  Level FlightAware Transoceanic
06:09AM 28.9454 -143.8234 61° Northeast 443 510 35,000  Level FlightAware Transoceanic
06:10AM 29.0050 -143.7002 61° Northeast 443 510 35,000  Level FlightAware Transoceanic
06:11AM 29.0644 -143.5768 61° Northeast 443 510 35,000  Level FlightAware Transoceanic
06:12AM 29.1238 -143.4533 61° Northeast 443 510 35,000  Level FlightAware Transoceanic
06:13AM 29.1830 -143.3297 61° Northeast 443 510 35,000  Level FlightAware Transoceanic
06:14AM 29.2421 -143.2059 61° Northeast 443 510 35,000  Level FlightAware Transoceanic
06:15AM 29.3011 -143.0820 61° Northeast 443 510 35,000  Level FlightAware Transoceanic
06:16AM 29.3600 -142.9579 61° Northeast 443 510 35,000  Level FlightAware Transoceanic
06:17AM 29.4188 -142.8337 62° Northeast 443 510 35,000  Level FlightAware Transoceanic
06:18AM 29.4774 -142.7094 62° Northeast 443 510 35,000  Level FlightAware Transoceanic
06:19AM 29.5360 -142.5849 62° Northeast 443 510 35,000  Level FlightAware Transoceanic
06:20AM 29.5944 -142.4602 62° Northeast 443 510 35,000  Level FlightAware Transoceanic
06:21AM 29.6527 -142.3354 62° Northeast 443 510 35,000  Level FlightAware Transoceanic
06:22AM 29.7109 -142.2105 62° Northeast 443 510 35,000  Level FlightAware Transoceanic
06:23AM 29.7690 -142.0854 62° Northeast 443 510 35,000  Level FlightAware Transoceanic
06:24AM 29.8270 -141.9602 62° Northeast 443 510 35,000  Level FlightAware Transoceanic
06:25AM 29.8848 -141.8349 62° Northeast 443 510 35,000  Level FlightAware Transoceanic
06:26AM 29.9425 -141.7093 62° Northeast 443 510 35,000  Level FlightAware Transoceanic
06:27AM 30.0001 -141.5837 62° Northeast 443 510 35,000  Level FlightAware Transoceanic
06:28AM 30.0576 -141.4579 62° Northeast 443 510 35,000  Level FlightAware Transoceanic
06:29AM 30.1150 -141.3319 62° Northeast 443 510 35,000  Level FlightAware Transoceanic
06:30AM 30.1722 -141.2058 62° Northeast 443 510 35,000  Level FlightAware Transoceanic
06:31AM 30.2294 -141.0796 62° Northeast 443 510 35,000  Level FlightAware Transoceanic
06:32AM 30.2864 -140.9532 62° Northeast 443 510 35,000  Level FlightAware Transoceanic
06:33AM 30.3432 -140.8267 63° Northeast 443 510 35,000  Level FlightAware Transoceanic
06:34AM 30.4000 -140.7000 63° Northeast 443 510 35,000  Level FlightAware Transoceanic
06:35AM 30.4558 -140.5751 63° Northeast 443 510 35,000  Level FlightAware Transoceanic
06:36AM 30.5116 -140.4501 63° Northeast 443 510 35,000  Level FlightAware Transoceanic
06:37AM 30.5671 -140.3250 63° Northeast 443 510 35,000 540 Level FlightAware Transoceanic
06:37AM 30.4000 -140.7000 63° Northeast 421 484 36,000  Climbing Oakland Oceanic (ODAPS)
06:38AM 30.6226 -140.1997 63° Northeast 443 510 35,000 -840 Descending FlightAware Transoceanic
06:39AM 30.6780 -140.0743 63° Northeast 443 510 35,000  Level FlightAware Transoceanic
06:40AM 30.7332 -139.9487 63° Northeast 443 510 35,000  Level FlightAware Transoceanic
06:41AM 30.7883 -139.8230 63° Northeast 443 510 35,000  Level FlightAware Transoceanic
06:42AM 30.8433 -139.6971 63° Northeast 443 510 35,000 480 Level FlightAware Transoceanic
06:43AM 30.8279 -139.7325 63° Northeast 421 484 36,000 480 Climbing FlightAware Transoceanic
06:44AM 30.8809 -139.6109 63° Northeast 421 484 36,000  Level FlightAware Transoceanic
06:45AM 30.9337 -139.4892 63° Northeast 421 484 36,000  Level FlightAware Transoceanic
06:46AM 30.9865 -139.3674 63° Northeast 421 484 36,000  Level FlightAware Transoceanic
06:47AM 31.0391 -139.2455 63° Northeast 421 484 36,000  Level FlightAware Transoceanic
06:48AM 31.0916 -139.1234 63° Northeast 421 484 36,000  Level FlightAware Transoceanic
06:49AM 31.1440 -139.0012 63° Northeast 421 484 36,000  Level FlightAware Transoceanic
06:50AM 31.1963 -138.8788 63° Northeast 421 484 36,000  Level FlightAware Transoceanic
06:51AM 31.2485 -138.7563 64° Northeast 421 484 36,000  Level FlightAware Transoceanic
06:52AM 31.3006 -138.6337 64° Northeast 421 484 36,000  Level FlightAware Transoceanic
06:53AM 31.3525 -138.5109 64° Northeast 421 484 36,000  Level FlightAware Transoceanic
06:54AM 31.4043 -138.3880 64° Northeast 421 484 36,000  Level FlightAware Transoceanic
06:55AM 31.4560 -138.2650 64° Northeast 421 484 36,000  Level FlightAware Transoceanic
06:56AM 31.5076 -138.1418 64° Northeast 421 484 36,000  Level FlightAware Transoceanic
06:57AM 31.5591 -138.0185 64° Northeast 421 484 36,000  Level FlightAware Transoceanic
06:58AM 31.6105 -137.8951 64° Northeast 421 484 36,000  Level FlightAware Transoceanic
06:59AM 31.6617 -137.7715 64° Northeast 421 484 36,000  Level FlightAware Transoceanic
07:00AM 31.7128 -137.6478 64° Northeast 421 484 36,000  Level FlightAware Transoceanic
07:01AM 31.7638 -137.5240 64° Northeast 421 484 36,000  Level FlightAware Transoceanic
07:02AM 31.8147 -137.4000 64° Northeast 421 484 36,000  Level FlightAware Transoceanic
07:03AM 31.8654 -137.2759 64° Northeast 421 484 36,000  Level FlightAware Transoceanic
07:04AM 31.9161 -137.1516 64° Northeast 421 484 36,000  Level FlightAware Transoceanic
07:05AM 31.9666 -137.0272 64° Northeast 421 484 36,000  Level FlightAware Transoceanic
07:06AM 32.0170 -136.9027 65° Northeast 421 484 36,000  Level FlightAware Transoceanic
07:07AM 32.0672 -136.7780 65° Northeast 421 484 36,000  Level FlightAware Transoceanic
07:08AM 32.1174 -136.6532 65° Northeast 421 484 36,000  Level FlightAware Transoceanic
07:09AM 32.1674 -136.5283 65° Northeast 421 484 36,000  Level FlightAware Transoceanic
07:10AM 32.2173 -136.4032 65° Northeast 421 484 36,000  Level FlightAware Transoceanic
07:11AM 32.2671 -136.2780 65° Northeast 421 484 36,000  Level FlightAware Transoceanic
07:12AM 32.3168 -136.1526 65° Northeast 421 484 36,000  Level FlightAware Transoceanic
07:13AM 32.3663 -136.0271 65° Northeast 421 484 36,000  Level FlightAware Transoceanic
07:14AM 32.4157 -135.9015 65° Northeast 421 484 36,000  Level FlightAware Transoceanic
07:15AM 32.4650 -135.7758 65° Northeast 421 484 36,000  Level FlightAware Transoceanic
07:16AM 32.5141 -135.6499 65° Northeast 421 484 36,000  Level FlightAware Transoceanic
07:17AM 32.5632 -135.5238 65° Northeast 421 484 36,000  Level FlightAware Transoceanic
07:18AM 32.6121 -135.3976 65° Northeast 421 484 36,000  Level FlightAware Transoceanic
07:19AM 32.6609 -135.2713 65° Northeast 421 484 36,000  Level FlightAware Transoceanic
07:20AM 32.7095 -135.1449 65° Northeast 421 484 36,000  Level FlightAware Transoceanic
07:21AM 32.7580 -135.0183 66° East 421 484 36,000  Level FlightAware Transoceanic
07:22AM 32.8064 -134.8915 66° East 421 484 36,000  Level FlightAware Transoceanic
07:23AM 32.8547 -134.7647 66° East 421 484 36,000  Level FlightAware Transoceanic
07:24AM 32.9029 -134.6377 66° East 421 484 36,000  Level FlightAware Transoceanic
07:25AM 32.9509 -134.5105 66° East 421 484 36,000  Level FlightAware Transoceanic
07:26AM 32.9987 -134.3833 66° East 421 484 36,000  Level FlightAware Transoceanic
07:27AM 33.0465 -134.2558 66° East 421 484 36,000  Level FlightAware Transoceanic
07:28AM 33.0941 -134.1283 66° East 421 484 36,000  Level FlightAware Transoceanic
07:29AM 33.1416 -134.0006 66° East 421 484 36,000  Level FlightAware Transoceanic
07:30AM 33.1890 -133.8728 66° East 421 484 36,000  Level FlightAware Transoceanic
07:31AM 33.2362 -133.7448 66° East 421 484 36,000  Level FlightAware Transoceanic
07:32AM 33.2833 -133.6167 66° East 421 484 36,000  Level FlightAware Transoceanic
07:33AM 33.3328 -133.4815 66° East 421 484 36,000  Level FlightAware Transoceanic
07:34AM 33.3821 -133.3462 66° East 421 484 36,000  Level FlightAware Transoceanic
07:35AM 33.4313 -133.2107 67° East 421 484 36,000  Level FlightAware Transoceanic
07:35AM 33.2833 -133.6167 66° East 445 512 36,000  Level Oakland Oceanic (ODAPS)
07:36AM 33.4803 -133.0751 67° East 421 484 36,000  Level FlightAware Transoceanic
07:37AM 33.5291 -132.9393 67° East 421 484 36,000  Level FlightAware Transoceanic
07:38AM 33.5779 -132.8034 67° East 421 484 36,000  Level FlightAware Transoceanic
07:39AM 33.6264 -132.6673 67° East 421 484 36,000  Level FlightAware Transoceanic
07:40AM 33.6749 -132.5311 67° East 421 484 36,000  Level FlightAware Transoceanic
07:41AM 33.7231 -132.3947 67° East 445 512 36,000  Level FlightAware Transoceanic
07:42AM 33.7713 -132.2582 67° East 445 512 36,000  Level FlightAware Transoceanic
07:43AM 33.8192 -132.1215 67° East 445 512 36,000  Level FlightAware Transoceanic
07:44AM 33.8670 -131.9847 67° East 445 512 36,000  Level FlightAware Transoceanic
07:45AM 33.9147 -131.8477 67° East 445 512 36,000  Level FlightAware Transoceanic
07:46AM 33.9622 -131.7105 67° East 445 512 36,000  Level FlightAware Transoceanic
07:47AM 34.0096 -131.5732 67° East 445 512 36,000  Level FlightAware Transoceanic
07:48AM 34.0568 -131.4358 68° East 445 512 36,000  Level FlightAware Transoceanic
07:49AM 34.1039 -131.2982 68° East 445 512 36,000  Level FlightAware Transoceanic
07:50AM 34.1508 -131.1604 68° East 445 512 36,000  Level FlightAware Transoceanic
07:51AM 34.1975 -131.0225 68° East 445 512 36,000  Level FlightAware Transoceanic
07:52AM 34.2441 -130.8844 68° East 445 512 36,000  Level FlightAware Transoceanic
07:53AM 34.2906 -130.7462 68° East 445 512 36,000  Level FlightAware Transoceanic
07:54AM 34.3368 -130.6078 68° East 445 512 36,000  Level FlightAware Transoceanic
07:55AM 34.3830 -130.4693 68° East 445 512 36,000  Level FlightAware Transoceanic
07:56AM 34.4290 -130.3306 68° East 445 512 36,000  Level FlightAware Transoceanic
07:57AM 34.4748 -130.1918 68° East 445 512 36,000  Level FlightAware Transoceanic
07:58AM 34.5204 -130.0528 68° East 445 512 36,000  Level FlightAware Transoceanic
07:59AM 34.5659 -129.9137 68° East 445 512 36,000  Level FlightAware Transoceanic
08:00AM 34.6113 -129.7744 68° East 445 512 36,000  Level FlightAware Transoceanic
08:01AM 34.6565 -129.6349 69° East 445 512 36,000  Level FlightAware Transoceanic
08:02AM 34.7015 -129.4953 69° East 445 512 36,000  Level FlightAware Transoceanic
08:03AM 34.7464 -129.3556 69° East 445 512 36,000  Level FlightAware Transoceanic
08:04AM 34.7911 -129.2157 69° East 445 512 36,000  Level FlightAware Transoceanic
08:05AM 34.8356 -129.0757 69° East 445 512 36,000  Level FlightAware Transoceanic
08:06AM 34.8800 -128.9355 69° East 445 512 36,000  Level FlightAware Transoceanic
08:07AM 34.9242 -128.7951 69° East 445 512 36,000  Level FlightAware Transoceanic
08:08AM 34.9683 -128.6546 69° East 445 512 36,000  Level FlightAware Transoceanic
08:09AM 35.0122 -128.5140 69° East 445 512 36,000  Level FlightAware Transoceanic
08:10AM 35.0559 -128.3732 69° East 445 512 36,000  Level FlightAware Transoceanic
08:11AM 35.0995 -128.2322 69° East 445 512 36,000  Level FlightAware Transoceanic
08:12AM 35.1429 -128.0911 69° East 445 512 36,000  Level FlightAware Transoceanic
08:13AM 35.1862 -127.9499 70° East 445 512 36,000  Level FlightAware Transoceanic
08:14AM 35.2293 -127.8085 70° East 445 512 36,000  Level FlightAware Transoceanic
08:15AM 35.2722 -127.6669 70° East 445 512 36,000  Level FlightAware Transoceanic
08:16AM 35.3149 -127.5252 70° East 445 512 36,000  Level FlightAware Transoceanic
08:17AM 35.3575 -127.3834 70° East 445 512 36,000  Level FlightAware Transoceanic
08:18AM 35.4000 -127.2414 70° East 445 512 36,000  Level FlightAware Transoceanic
08:19AM 35.4422 -127.0992 70° East 445 512 36,000  Level FlightAware Transoceanic
08:20AM 35.4843 -126.9569 70° East 445 512 36,000  Level FlightAware Transoceanic
08:21AM 35.5262 -126.8145 70° East 445 512 36,000  Level FlightAware Transoceanic
08:22AM 35.5680 -126.6719 70° East 445 512 36,000  Level FlightAware Transoceanic
08:23AM 35.6096 -126.5291 70° East 445 512 36,000  Level FlightAware Transoceanic
08:23AM 35.5911 -126.5306 67° East 440 506 36,000  Level Oakland Center
08:24AM 35.6510 -126.3862 70° East 445 512 36,000  Level FlightAware Transoceanic
08:24AM 35.6433 -126.3933 65° Northeast 442 509 36,000  Level Oakland Center
08:25AM 35.6922 -126.2432 70° East 445 512 36,000  Level FlightAware Transoceanic
08:25AM 35.6892 -126.2519 68° East 443 510 36,000  Level Oakland Center
08:26AM 35.7333 -126.1000 67° East 445 512 36,000  Level FlightAware Transoceanic
08:26AM 35.7344 -126.1117 68° East 443 510 36,000  Level Oakland Center
08:27AM 35.7841 -125.9526 67° East 445 512 36,000  Level FlightAware Transoceanic
08:27AM 35.7792 -125.9692 69° East 444 511 36,000  Level Oakland Center
08:28AM 35.8346 -125.8050 67° East 445 512 36,000  Level FlightAware Transoceanic
08:28AM 35.8267 -125.8286 67° East 446 513 36,000  Level Oakland Center
08:29AM 35.8728 -125.6872 68° East 446 513 36,000  Level Oakland Center
08:30AM 35.9189 -125.5447 68° East 447 514 36,000  Level Oakland Center
08:31AM 35.9597 -125.3961 71° East 451 519 36,000  Level Oakland Center
08:32AM 36.0058 -125.2539 68° East 449 517 36,000  Level Oakland Center
08:33AM 36.0514 -125.1097 69° East 449 517 36,000  Level Oakland Center
08:34AM 36.0967 -124.9658 69° East 452 520 36,000  Level Oakland Center
08:35AM 36.1439 -124.8217 68° East 452 520 36,000  Level Oakland Center
08:36AM 36.1906 -124.6758 68° East 457 526 36,000  Level Oakland Center
08:37AM 36.2364 -124.5325 68° East 451 519 36,000 180 Level Oakland Center
08:38AM 36.2828 -124.3864 68° East 456 525 36,400 480 Climbing Oakland Center
08:39AM 36.3289 -124.2394 69° East 460 529 37,000 300 Climbing Oakland Center
08:40AM 36.3728 -124.0958 69° East 450 518 37,000  Level Oakland Center
08:41AM 36.4181 -123.9508 69° East 451 519 37,000  Level Oakland Center
08:42AM 36.4639 -123.8050 69° East 454 522 37,000  Level Oakland Center
08:43AM 36.5089 -123.6583 69° East 456 525 37,000 -60 Level Oakland Center
08:44AM 36.5550 -123.5106 69° East 461 531 36,900  Descending Oakland Center
08:45AM 36.5986 -123.3650 69° East 452 520 37,000  Climbing Oakland Center
08:46AM 36.6442 -123.2186 69° East 454 522 37,000  Level Oakland Center
08:47AM 36.6892 -123.0719 69° East 454 522 37,000  Level Oakland Center
08:48AM 36.7328 -122.9228 70° East 459 528 37,000  Level Oakland Center
08:49AM 36.7775 -122.7756 69° East 457 526 37,000  Level Oakland Center
08:50AM 36.8211 -122.6267 70° East 458 527 37,000 -60 Level Oakland Center
08:51AM 36.8639 -122.4792 70° East 457 526 36,900  Descending Oakland Center
08:52AM 36.9086 -122.3256 70° East 467 537 37,000  Climbing Oakland Center
08:53AM 36.9528 -122.1767 70° East 462 532 36,900  Descending Oakland Center
08:54AM 36.9969 -122.0244 70° East 469 540 37,000  Climbing Oakland Center
08:55AM 37.0403 -121.8739 70° East 465 535 37,000  Level Oakland Center
08:56AM 37.0897 -121.6992 70° East 465 535 37,000  Level Oakland Center
08:57AM 37.1344 -121.5475 70° East 466 536 37,000  Level Oakland Center
08:58AM 37.1778 -121.3950 70° East 466 536 37,000  Level Oakland Center
08:59AM 37.2217 -121.2419 70° East 467 537 37,000  Level Oakland Center
09:00AM 37.2639 -121.0889 71° East 466 536 37,000  Level Oakland Center
09:01AM 37.3078 -120.9358 70° East 466 536 37,000  Level Oakland Center
09:02AM 37.3497 -120.7797 71° East 468 539 37,000  Level Oakland Center
09:03AM 37.3911 -120.6267 71° East 468 539 37,000  Level Oakland Center
09:04AM 37.4333 -120.4714 71° East 469 540 37,000  Level Oakland Center
09:05AM 37.4756 -120.3153 71° East 471 542 37,000  Level Oakland Center
09:06AM 37.5181 -120.1611 71° East 470 541 37,000  Level Oakland Center
09:07AM 37.5586 -120.0083 71° East 465 535 37,000  Level Oakland Center
09:08AM 37.6006 -119.8528 71° East 469 540 37,000  Level Oakland Center
09:09AM 37.6419 -119.6964 71° East 472 543 37,000  Level Oakland Center
09:10AM 37.6828 -119.5414 72° East 468 539 37,000  Level Oakland Center
09:11AM 37.7233 -119.3867 72° East 464 534 37,000  Level Oakland Center
09:12AM 37.7647 -119.2319 71° East 466 536 37,000  Level Oakland Center
09:13AM 37.8050 -119.0750 72° East 468 539 37,000  Level Oakland Center
09:14AM 37.8450 -118.9189 72° East 469 540 37,000  Level Oakland Center
09:15AM 37.8897 -118.7453 72° East 472 543 37,000  Level Oakland Center
09:16AM 37.9303 -118.5858 72° East 476 548 37,000  Level Oakland Center
09:17AM 37.9697 -118.4250 73° East 476 548 37,000  Level Oakland Center
09:18AM 38.0108 -118.2647 72° East 478 550 37,000  Level Oakland Center
09:19AM 38.0508 -118.1036 72° East 479 551 37,000  Level Oakland Center
09:20AM 38.0914 -117.9425 72° East 480 552 37,000  Level Oakland Center
09:21AM 38.1306 -117.7794 73° East 482 555 37,000  Level Oakland Center
09:22AM 38.1706 -117.6158 73° East 483 556 37,000  Level Oakland Center
09:23AM 38.2106 -117.4514 73° East 482 555 37,000  Level Oakland Center
09:24AM 38.2433 -117.3169 73° East 485 558 37,000  Level Salt Lake Center
09:25AM 38.2842 -117.1472 73° East 486 559 37,000  Level Salt Lake Center
09:26AM 38.3228 -116.9806 74° East 484 557 37,000  Level Salt Lake Center
09:27AM 38.3625 -116.8147 73° East 486 559 37,000  Level Salt Lake Center
09:28AM 38.3983 -116.6506 74° East 482 555 37,000  Level Salt Lake Center
09:29AM 38.4069 -116.4756 86° East 492 566 37,000  Level Salt Lake Center
09:31AM 38.4175 -116.2669 86° East 490 564 37,000  Level Oakland Center
09:32AM 38.4261 -116.0947 86° East 486 559 37,000  Level Oakland Center
09:33AM 38.4353 -115.9228 86° East 487 560 37,000  Level Salt Lake Center
09:34AM 38.4408 -115.7492 88° East 488 562 37,000  Level Salt Lake Center
09:35AM 38.4467 -115.5767 87° East 486 559 37,000  Level Salt Lake Center
09:36AM 38.4558 -115.4050 86° East 486 559 37,000  Level Salt Lake Center
09:37AM 38.4622 -115.2175 87° East 488 562 37,000  Level Salt Lake Center
09:38AM 38.4664 -115.0458 88° East 485 558 37,000  Level Salt Lake Center
09:39AM 38.4722 -114.8731 87° East 488 562 37,000  Level Salt Lake Center
09:40AM 38.4775 -114.7028 88° East 483 556 37,000  Level Salt Lake Center
09:41AM 38.4828 -114.5283 88° East 490 564 37,000  Level Salt Lake Center
09:42AM 38.4864 -114.3572 88° East 485 558 37,000  Level Salt Lake Center
09:43AM 38.4925 -114.1836 87° East 487 560 37,000  Level Salt Lake Center
09:44AM 38.4961 -114.0089 88° East 492 566 37,000  Level Salt Lake Center
09:45AM 38.5006 -113.8356 88° East 489 563 37,000  Level Salt Lake Center
09:46AM 38.5044 -113.6261 89° East 492 566 37,000  Level Salt Lake Center
09:47AM 38.5083 -113.4533 88° East 487 560 37,000  Level Salt Lake Center
09:48AM 38.5108 -113.2786 89° East 490 564 37,000  Level Salt Lake Center
09:49AM 38.5133 -113.1031 89° East 493 567 37,000  Level Salt Lake Center
09:50AM 38.5169 -112.9272 88° East 494 568 37,000  Level Salt Lake Center
09:51AM 38.5192 -112.7517 89° East 493 567 37,000  Level Salt Lake Center
09:52AM 38.5219 -112.5761 89° East 493 567 37,000  Level Salt Lake Center
09:53AM 38.5231 -112.4011 89° East 494 568 37,000  Level Salt Lake Center
09:54AM 38.5261 -112.2261 89° East 493 567 37,000  Level Salt Lake Center
09:55AM 38.5264 -112.0522 90° East 491 565 37,000  Level Salt Lake Center
09:56AM 38.5286 -111.8442 89° East 489 563 37,000  Level Salt Lake Center
09:57AM 38.5289 -111.6708 90° East 489 563 37,000  Level Salt Lake Center
09:58AM 38.5289 -111.4967 90° East 491 565 37,000  Level Salt Lake Center
09:59AM 38.5297 -111.3231 90° East 491 565 37,000  Level Salt Lake Center
10:00AM 38.5297 -111.1489 90° East 491 565 37,000  Level Salt Lake Center
10:01AM 38.5289 -110.9758 90° East 488 562 37,000  Level Salt Lake Center
10:02AM 38.5281 -110.8067 90° East 486 559 37,000  Level Salt Lake Center
10:03AM 38.5281 -110.6172 90° East 480 552 37,000  Level Salt Lake Center
10:04AM 38.5264 -110.4544 91° East 479 551 37,000  Level Salt Lake Center
10:05AM 38.5256 -110.2669 90° East 475 547 37,000 -180 Level Salt Lake Center
10:06AM 38.5239 -110.1047 91° East 477 549 36,700 -540 Descending Salt Lake Center
10:07AM 38.5222 -109.9131 91° East 483 556 35,900 -720 Descending Salt Lake Center
10:08AM 38.5178 -109.7456 92° East 491 565 35,300 -660 Descending Salt Lake Center
10:09AM 38.5139 -109.5778 92° East 495 570 34,600 -720 Descending Salt Lake Center
10:10AM 38.5089 -109.3789 92° East 501 577 33,900 -600 Descending Salt Lake Center
10:11AM 38.5028 -109.1797 92° East 498 573 33,300 -420 Descending Denver Center
10:13AM 38.4989 -109.0133 92° East 491 565 33,000 -180 Descending Denver Center
10:14AM 38.4933 -108.8192 92° East 492 566 33,000  Level Denver Center
10:15AM 38.4881 -108.6525 92° East 493 567 33,000  Level Denver Center
10:16AM 38.4822 -108.4586 92° East 491 565 33,000  Level Denver Center
10:17AM 38.4758 -108.2925 93° East 492 566 33,000  Level Denver Center
10:18AM 38.4731 -108.0983 91° East 493 567 33,000  Level Denver Center
10:19AM 38.5125 -107.9453 72° East 479 551 33,000  Level Denver Center
10:20AM 38.5739 -107.7769 65° Northeast 470 541 33,000  Level Denver Center
10:21AM 38.6278 -107.6322 64° Northeast 471 542 33,000  Level Denver Center
10:22AM 38.6894 -107.4644 65° Northeast 469 540 33,000  Level Denver Center
10:23AM 38.7417 -107.3208 65° Northeast 466 536 33,000  Level Denver Center
10:24AM 38.7903 -107.1892 65° Northeast 463 533 33,000  Level Denver Center
10:25AM 38.8556 -107.0089 65° Northeast 464 534 33,000  Level Denver Center
10:26AM 38.9072 -106.8656 65° Northeast 468 539 33,000  Level Denver Center
10:27AM 38.9678 -106.6969 65° Northeast 466 536 33,000 -540 Level Denver Center
10:28AM 39.0189 -106.5536 65° Northeast 462 532 32,000 -1,380 Descending Denver Center
10:29AM 39.0772 -106.3917 65° Northeast 449 517 30,200 -1,800 Descending Denver Center
10:30AM 39.1253 -106.2581 65° Northeast 435 501 28,300 -1,920 Descending Denver Center
10:31AM 39.1761 -106.1111 66° East 416 479 26,300 -1,920 Descending Denver Center
10:32AM 39.2208 -105.9833 66° East 397 457 24,400 -1,800 Descending Denver Center
10:33AM 39.2625 -105.8633 66° East 372 428 22,600 -1,740 Descending Denver Center
10:34AM 39.3033 -105.7472 66° East 359 413 20,900 -1,740 Descending Denver Center
10:35AM 39.3422 -105.6314 67° East 353 406 19,100 -1,380 Descending Denver Center
10:36AM 39.3828 -105.5153 66° East 356 410 18,100 -780 Descending Denver Center
10:37AM 39.3994 -105.3897 80° East 306 352 17,500 -1,020 Descending Denver Center
10:38AM 39.4044 -105.2675 87° East 316 364 16,000 -1,380 Descending Denver Center
10:39AM 39.4094 -105.1594 87° East 305 351 14,700 -1,260 Descending Denver Center
10:40AM 39.4142 -105.0461 87° East 297 342 13,500 -780 Descending Denver Center
10:41AM 39.4175 -104.9525 87° East 268 308 13,100 -600 Descending Denver Center
10:42AM 39.4564 -104.8811 55° Northeast 233 268 12,300 -900 Descending Denver Center
10:43AM 39.5050 -104.8261 41° Northeast 231 266 11,300 -1,140 Descending Denver Center
10:44AM 39.5561 -104.7681 41° Northeast 229 264 10,000 -1,260 Descending Denver Center
10:46AM 39.6097 -104.7206 34° Northeast 233 268 8,700 -900 Descending Denver Center
10:47AM 39.6678 -104.6847 25° Northeast 213 245 8,200 -540 Descending Denver Center
10:48AM 39.7172 -104.6661 16° North 189 217 7,600 -600 Descending Denver Center